»·PEaware :: DAL2388 KSLC-KDEN

DAL2388 :: KSLC-KDEN

FLIGHT INFORMATION

Flight Status: Arrived
Operator:
Delta Air Lines
More flights by this operator :: More flights under this callsign
Pilot: Joe P. (13940)
Aircraft: MCDONNELL-DOUGLAS MD-82
(MD82)
More flights by this aircraft type
Origin: KSLC Salt Lake City Intl
United States
Destination: KDEN Denver Intl
United States
More flights between these airports :: More routes between these airports
Route: +NSIGN5 CHE KAILE2
File this flight plan on PilotEdge
Remarks: SEL / ABCD KCOS -PBN / B3B4B5D3D4 DOF / 180430 REG / N904DL EET / KZDV0026
Altitude:
(Current/Filed)
310ft
Speed:
(Current/Filed)
436kts
Departed: 29-Apr-18 05:58 PM
Arrived: 29-Apr-18 06:58 PM
Distance/Time
Traveled:
339nm/0:59
Distance/Time
To Go:
Arrived

Flight Plot

Page will automatically refresh every two minutes.

Flight plan parsing failed; only flown route is shown


Map Options




Map Legend


Flown Route
Filed Route
Departure Airport
Arrival Airport
Navaid (VOR, NDB)
Fix

Horizontal Profiles

Position Reports

Time Latitude Longitude Heading Altitude Ground
Speed
29-Apr-18 17:09 40.785586 -111.978056 231 4236ft 0kts
29-Apr-18 17:10 40.785586 -111.978056 231 4236ft 0kts
29-Apr-18 17:11 40.785586 -111.978056 231 4236ft 0kts
29-Apr-18 17:12 40.785586 -111.978056 231 4236ft 0kts
29-Apr-18 17:13 40.785586 -111.978056 231 4236ft 0kts
29-Apr-18 17:14 40.785586 -111.978056 231 4236ft 0kts
29-Apr-18 17:15 40.785586 -111.978056 231 4236ft 0kts
29-Apr-18 17:16 40.785586 -111.978056 231 4236ft 0kts
29-Apr-18 17:17 40.785586 -111.978056 231 4236ft 0kts
29-Apr-18 17:18 40.785586 -111.978056 231 4236ft 0kts
29-Apr-18 17:19 40.785586 -111.978056 231 4236ft 0kts
29-Apr-18 17:20 40.785586 -111.978056 231 4236ft 0kts
29-Apr-18 17:21 40.785586 -111.978056 231 4236ft 0kts
29-Apr-18 17:22 40.785586 -111.978056 231 4236ft 0kts
29-Apr-18 17:23 40.785586 -111.978056 231 4236ft 0kts
29-Apr-18 17:24 40.785586 -111.978056 231 4236ft 0kts
29-Apr-18 17:25 40.785586 -111.978056 231 4236ft 0kts
29-Apr-18 17:26 40.785586 -111.978056 231 4236ft 0kts
29-Apr-18 17:27 40.785586 -111.978056 231 4236ft 0kts
29-Apr-18 17:28 40.785586 -111.978056 231 4236ft 0kts
29-Apr-18 17:29 40.785586 -111.978056 231 4236ft 0kts
29-Apr-18 17:30 40.785586 -111.978056 231 4236ft 0kts
29-Apr-18 17:31 40.785586 -111.978056 231 4236ft 0kts
29-Apr-18 17:32 40.785586 -111.978056 231 4236ft 0kts
29-Apr-18 17:33 40.785586 -111.978056 231 4236ft 0kts
29-Apr-18 17:34 40.785586 -111.978056 231 4236ft 0kts
29-Apr-18 17:35 40.785586 -111.978056 231 4236ft 0kts
29-Apr-18 17:36 40.785586 -111.978056 231 4236ft 0kts
29-Apr-18 17:37 40.785586 -111.978056 231 4236ft 0kts
29-Apr-18 17:38 40.785586 -111.978056 231 4236ft 0kts
29-Apr-18 17:39 40.785586 -111.978056 231 4236ft 0kts
29-Apr-18 17:40 40.785586 -111.978056 231 4236ft 0kts
29-Apr-18 17:41 40.785586 -111.978056 231 4236ft 0kts
29-Apr-18 17:42 40.785586 -111.978056 231 4236ft 0kts
29-Apr-18 17:43 40.785586 -111.978056 231 4236ft 0kts
29-Apr-18 17:44 40.785681 -111.977902 226 4236ft 2kts
29-Apr-18 17:45 40.786388 -111.977443 184 4236ft 2kts
29-Apr-18 17:46 40.786854 -111.977499 164 4236ft 0kts
29-Apr-18 17:47 40.786854 -111.977499 164 4236ft 0kts
29-Apr-18 17:48 40.786854 -111.977499 164 4236ft 0kts
29-Apr-18 17:49 40.786853 -111.977499 164 4236ft 0kts
29-Apr-18 17:50 40.786030 -111.977102 159 4236ft 2kts
29-Apr-18 17:51 40.785905 -111.977041 159 4236ft 0kts
29-Apr-18 17:52 40.785637 -111.976935 166 4236ft 9kts
29-Apr-18 17:53 40.781675 -111.976239 174 4236ft 19kts
29-Apr-18 17:54 40.777674 -111.975327 170 4236ft 10kts
29-Apr-18 17:55 40.774599 -111.974834 138 4236ft 0kts
29-Apr-18 17:56 40.774568 -111.973997 77 4236ft 10kts
29-Apr-18 17:57 40.776722 -111.973298 354 4236ft 42kts
29-Apr-18 17:58 40.812715 -111.977378 355 4748ft 181kts
29-Apr-18 17:59 40.864462 -111.984035 352 6413ft 220kts
29-Apr-18 18:00 40.933070 -111.993884 352 8089ft 260kts
29-Apr-18 18:01 41.008458 -112.004712 352 10108ft 288kts
29-Apr-18 18:02 41.091313 -112.010005 19 12280ft 311kts
29-Apr-18 18:03 41.153492 -111.928497 69 14235ft 326kts
29-Apr-18 18:04 41.136984 -111.816789 137 16362ft 313kts
29-Apr-18 18:05 41.070997 -111.741632 146 18548ft 317kts
29-Apr-18 18:06 40.998955 -111.674007 155 20668ft 318kts
29-Apr-18 18:07 40.926344 -111.606422 129 22570ft 343kts
29-Apr-18 18:08 40.909660 -111.465045 93 22709ft 424kts
29-Apr-18 18:09 40.902131 -111.311002 104 24693ft 414kts
29-Apr-18 18:10 40.881959 -111.163178 106 26682ft 405kts
29-Apr-18 18:11 40.864791 -111.018262 106 28665ft 393kts
29-Apr-18 18:12 40.848541 -110.878871 107 30625ft 372kts
29-Apr-18 18:13 40.831330 -110.740045 107 30888ft 401kts
29-Apr-18 18:14 40.812408 -110.588200 106 30871ft 436kts
29-Apr-18 18:15 40.791666 -110.424314 106 30862ft 466kts
29-Apr-18 18:16 40.770143 -110.251733 106 30836ft 486kts
29-Apr-18 18:17 40.747164 -110.076426 105 30820ft 487kts
29-Apr-18 18:18 40.732207 -109.898596 100 30806ft 494kts
29-Apr-18 18:19 40.720767 -109.719377 101 30791ft 492kts
29-Apr-18 18:20 40.707753 -109.539930 101 30784ft 492kts
29-Apr-18 18:21 40.694718 -109.361086 101 30782ft 491kts
29-Apr-18 18:22 40.680970 -109.182725 101 30786ft 490kts
29-Apr-18 18:23 40.667299 -109.003920 101 30787ft 489kts
29-Apr-18 18:24 40.653644 -108.825914 101 30791ft 489kts
29-Apr-18 18:25 40.639345 -108.647516 101 30820ft 490kts
29-Apr-18 18:26 40.625023 -108.469449 101 30825ft 490kts
29-Apr-18 18:27 40.610353 -108.291311 102 30831ft 489kts
29-Apr-18 18:28 40.595027 -108.112512 101 30837ft 490kts
29-Apr-18 18:29 40.579697 -107.934433 101 30839ft 488kts
29-Apr-18 18:30 40.564319 -107.757308 102 30851ft 487kts
29-Apr-18 18:31 40.548093 -107.580155 101 30849ft 486kts
29-Apr-18 18:32 40.532051 -107.404192 101 30851ft 485kts
29-Apr-18 18:33 40.518011 -107.228551 99 30866ft 483kts
29-Apr-18 18:34 40.508212 -107.052446 98 30872ft 482kts
29-Apr-18 18:35 40.498922 -106.877511 98 30878ft 479kts
29-Apr-18 18:36 40.489550 -106.702977 98 30882ft 476kts
29-Apr-18 18:37 40.478852 -106.529981 98 30897ft 475kts
29-Apr-18 18:38 40.469492 -106.357013 97 30913ft 475kts
29-Apr-18 18:39 40.459397 -106.183980 98 30936ft 473kts
29-Apr-18 18:40 40.447448 -106.011526 99 29411ft 482kts
29-Apr-18 18:41 40.422590 -105.841261 107 28139ft 474kts
29-Apr-18 18:42 40.394078 -105.671286 105 26029ft 476kts
29-Apr-18 18:43 40.369117 -105.510169 106 22977ft 439kts
29-Apr-18 18:44 40.344957 -105.351822 103 19781ft 436kts
29-Apr-18 18:45 40.325312 -105.203660 104 16763ft 389kts
29-Apr-18 18:46 40.305524 -105.061127 103 13904ft 386kts
29-Apr-18 18:47 40.288422 -104.935122 103 13000ft 304kts
29-Apr-18 18:48 40.273278 -104.830693 103 11898ft 296kts
29-Apr-18 18:49 40.251922 -104.737558 132 10762ft 237kts
29-Apr-18 18:50 40.194318 -104.692430 176 9722ft 243kts
29-Apr-18 18:51 40.127518 -104.694520 177 9060ft 240kts
29-Apr-18 18:52 40.065158 -104.693135 183 8634ft 201kts
29-Apr-18 18:53 40.014040 -104.694769 181 7675ft 159kts
29-Apr-18 18:54 39.972100 -104.695253 182 6908ft 145kts
29-Apr-18 18:55 39.931859 -104.695924 181 6185ft 143kts
29-Apr-18 18:56 39.892343 -104.696233 181 5449ft 138kts
29-Apr-18 18:57 39.870608 -104.696372 176 5440ft 35kts
29-Apr-18 18:58 39.866867 -104.695315 153 5440ft 0kts
29-Apr-18 18:59 39.866865 -104.695314 153 5440ft 0kts
29-Apr-18 19:00 39.866863 -104.695313 153 5440ft 0kts
29-Apr-18 19:01 39.866841 -104.695298 153 5440ft 1kts
29-Apr-18 19:02 39.865560 -104.694475 152 5440ft 9kts
29-Apr-18 19:03 39.862190 -104.691980 151 5440ft 17kts
29-Apr-18 19:04 39.860391 -104.686051 91 5440ft 8kts
29-Apr-18 19:05 39.857767 -104.685140 181 5440ft 14kts
29-Apr-18 19:06 39.856000 -104.683058 98 5440ft 10kts
29-Apr-18 19:07 39.853018 -104.681642 119 5440ft 13kts
29-Apr-18 19:08 39.852970 -104.677997 46 5440ft 5kts
29-Apr-18 19:09 39.853285 -104.677674 40 5440ft 0kts
29-Apr-18 19:10 39.853285 -104.677674 40 5440ft 0kts
29-Apr-18 19:11 39.853285 -104.677674 40 5440ft 0kts

Navigation Log

Ident Type
Flight plan parsing failed, navigation log unavailable